createdAt,value
2023-05-20T00:05:32.572Z,99.99
2023-05-20T00:20:32.781Z,98.97
2023-05-20T00:35:33.210Z,97.74
2023-05-20T00:50:34.041Z,97.64
2023-05-20T01:05:34.576Z,99.99
2023-05-20T01:20:35.577Z,97.63
2023-05-20T01:35:35.990Z,89.52
2023-05-20T01:50:36.981Z,85.15
2023-05-20T02:05:37.535Z,86.32
2023-05-20T02:20:38.418Z,82.78
2023-05-20T02:35:38.752Z,83.61
2023-05-20T02:50:38.939Z,84.06
2023-05-20T03:05:39.683Z,81.13
2023-05-20T03:20:40.332Z,74.80
2023-05-20T03:35:40.546Z,76.93
2023-05-20T03:50:40.706Z,77.58
2023-05-20T04:05:40.752Z,84.84
2023-05-20T04:20:40.994Z,95.34
2023-05-20T04:35:41.318Z,98.02
2023-05-20T04:50:41.597Z,99.41
2023-05-20T05:05:41.633Z,98.58
2023-05-20T05:20:42.026Z,98.90
2023-05-20T05:35:42.116Z,98.69
2023-05-20T05:50:43.317Z,98.65
2023-05-20T06:05:43.881Z,99.52
2023-05-20T06:20:44.179Z,99.99
2023-05-20T06:35:44.898Z,99.99
2023-05-20T06:50:45.019Z,99.99
2023-05-20T07:05:45.322Z,99.99
2023-05-20T07:20:45.694Z,99.99
2023-05-20T07:35:45.435Z,99.99
2023-05-20T07:50:45.948Z,99.99
2023-05-20T08:05:46.077Z,98.05
2023-05-20T08:20:46.172Z,95.63
2023-05-20T08:35:46.280Z,93.26
2023-05-20T08:50:46.504Z,88.64
2023-05-20T09:05:46.670Z,86.27
2023-05-20T09:20:47.107Z,83.32
2023-05-20T09:35:47.448Z,79.57
2023-05-20T09:50:47.643Z,78.59
2023-05-20T10:05:47.845Z,77.62
2023-05-20T10:20:47.878Z,80.98
2023-05-20T10:35:48.191Z,81.48
2023-05-20T10:50:48.411Z,79.29
2023-05-20T11:05:48.702Z,79.56
2023-05-20T11:20:50.007Z,79.56
2023-05-20T11:35:50.475Z,77.87
2023-05-20T11:50:50.615Z,76.19
2023-05-20T12:05:50.550Z,72.74
2023-05-20T12:20:51.109Z,71.46
2023-05-20T12:35:50.974Z,70.73
2023-05-20T12:50:51.404Z,70.56
2023-05-20T13:05:51.583Z,66.00
2023-05-20T13:20:51.789Z,65.80
2023-05-20T13:35:51.921Z,63.78
2023-05-20T13:50:52.203Z,64.18
2023-05-20T14:05:52.416Z,63.58
2023-05-20T14:20:52.531Z,62.66
2023-05-20T14:35:52.634Z,59.52
2023-05-20T14:50:52.851Z,58.29
2023-05-20T15:05:53.183Z,56.85
2023-05-20T15:20:53.441Z,59.07
2023-05-20T15:35:53.625Z,58.94
2023-05-20T15:50:54.007Z,58.67
2023-05-20T16:05:55.053Z,60.05
2023-05-20T16:20:55.258Z,62.21
2023-05-20T16:35:55.447Z,66.99
2023-05-20T16:50:55.670Z,69.79
2023-05-20T17:05:55.961Z,72.03
2023-05-20T17:20:56.143Z,74.91
2023-05-20T17:35:56.357Z,75.65
2023-05-20T17:50:56.369Z,79.10
2023-05-20T18:05:56.618Z,81.63
2023-05-20T18:20:56.870Z,83.32
2023-05-20T18:35:57.095Z,85.38
2023-05-20T18:50:57.276Z,87.41
2023-05-20T19:06:01.301Z,89.92
2023-05-20T19:21:01.323Z,94.56
2023-05-20T19:36:01.470Z,97.14
2023-05-20T19:51:01.650Z,97.69
2023-05-20T20:06:02.520Z,99.15
2023-05-20T20:21:02.609Z,99.35
2023-05-20T20:36:02.784Z,99.69
2023-05-20T20:51:03.272Z,99.74
2023-05-20T21:06:03.848Z,99.99
2023-05-20T21:21:03.993Z,99.99
2023-05-20T21:36:04.453Z,98.50
2023-05-20T21:51:04.572Z,95.50
2023-05-20T22:06:04.773Z,93.98
2023-05-20T22:21:05.266Z,94.23
2023-05-20T22:36:05.377Z,89.95
2023-05-20T22:51:05.605Z,88.73
2023-05-20T23:06:05.809Z,88.20
2023-05-20T23:21:07.161Z,88.71
2023-05-20T23:36:07.278Z,86.21
2023-05-20T23:51:07.545Z,85.63
